Time;durP1;ratioP1;P1;durP2;ratioP2;P2;SDS_P1;SDS_P2;PMS_P1;PMS_P2;Temp;Humidity;BMP_temperature;BMP_pressure;BME280_temperature;BME280_humidity;BME280_pressure;Samples;Min_cycle;Max_cycle;Signal;HPM_P1;HPM_P2
2023/11/21 00:00:20;;;;;;;84.05;25.42;;;8.10;99.90;;;;;;5071274;28;20081;-55
2023/11/21 00:02:46;;;;;;;93.80;27.30;;;8.10;99.90;;;;;;5070887;28;20024;-56
2023/11/21 00:05:14;;;;;;;108.40;30.20;;;8.10;99.90;;;;;;5070818;28;20195;-55
2023/11/21 00:07:39;;;;;;;69.55;25.88;;;8.10;99.90;;;;;;5070815;28;20437;-55
2023/11/21 00:10:06;;;;;;;119.88;32.50;;;8.10;99.90;;;;;;5070624;28;20044;-56
2023/11/21 00:12:33;;;;;;;75.82;26.08;;;8.10;99.90;;;;;;5071411;28;20028;-55
2023/11/21 00:14:58;;;;;;;89.53;28.55;;;8.10;99.90;;;;;;5070928;28;20312;-55
2023/11/21 00:17:24;;;;;;;62.38;25.77;;;8.00;99.90;;;;;;5070671;28;20078;-55
2023/11/21 00:19:52;;;;;;;103.65;30.45;;;8.10;99.90;;;;;;5070907;28;20358;-56
2023/11/21 00:22:17;;;;;;;71.43;26.05;;;8.00;99.90;;;;;;5071278;28;20020;-56
2023/11/21 00:24:43;;;;;;;95.18;28.52;;;8.00;99.90;;;;;;5070705;28;20034;-55
2023/11/21 00:27:08;;;;;;;101.00;29.60;;;8.00;99.90;;;;;;5070324;28;20029;-55
2023/11/21 00:29:34;;;;;;;65.70;24.58;;;8.00;99.90;;;;;;5070705;28;20028;-55
2023/11/21 00:31:59;;;;;;;73.38;26.90;;;8.10;99.90;;;;;;5070527;28;20439;-56
2023/11/21 00:34:25;;;;;;;111.57;31.45;;;8.00;99.90;;;;;;5069115;28;20316;-55
2023/11/21 00:36:51;;;;;;;103.53;29.15;;;8.00;99.90;;;;;;5069419;28;20032;-55
2023/11/21 00:39:16;;;;;;;72.32;25.83;;;8.00;99.90;;;;;;5070624;28;20040;-55
2023/11/21 00:41:42;;;;;;;68.25;26.15;;;8.00;99.90;;;;;;5052277;28;20038;-54
2023/11/21 00:44:08;;;;;;;73.22;25.73;;;8.00;99.90;;;;;;5070581;28;20032;-54
2023/11/21 00:46:33;;;;;;;97.55;28.95;;;8.10;99.90;;;;;;5069960;28;20036;-54
2023/11/21 00:48:59;;;;;;;105.93;28.20;;;8.00;99.90;;;;;;5069960;28;20482;-55
2023/11/21 00:51:25;;;;;;;70.80;25.92;;;8.00;99.90;;;;;;5070372;28;20029;-56
2023/11/21 00:53:50;;;;;;;79.20;24.13;;;8.00;99.90;;;;;;5068604;28;20499;-55
2023/11/21 00:56:16;;;;;;;67.60;26.15;;;8.00;99.90;;;;;;5069964;28;20031;-56
2023/11/21 00:58:49;;;;;;;61.83;23.40;;;8.00;99.90;;;;;;5069946;28;20551;-55
2023/11/21 01:01:15;;;;;;;70.15;25.65;;;8.00;99.90;;;;;;5070251;28;20044;-55
2023/11/21 01:03:41;;;;;;;93.97;26.63;;;8.00;99.90;;;;;;5070247;28;20484;-56
2023/11/21 01:06:07;;;;;;;64.00;24.55;;;8.00;99.90;;;;;;5070105;28;20032;-56
2023/11/21 01:08:32;;;;;;;63.47;25.67;;;8.00;99.90;;;;;;5069791;28;20033;-55
2023/11/21 01:10:58;;;;;;;88.78;29.33;;;8.00;99.90;;;;;;5070098;28;20111;-56
2023/11/21 01:13:23;;;;;;;62.22;24.25;;;8.00;99.90;;;;;;5069932;28;20036;-55
2023/11/21 01:15:49;;;;;;;80.45;27.58;;;8.00;99.90;;;;;;5069477;28;20123;-56
2023/11/21 01:18:14;;;;;;;64.82;26.40;;;8.00;99.90;;;;;;5069252;28;20105;-55
2023/11/21 01:20:40;;;;;;;127.10;33.05;;;8.00;99.90;;;;;;5070152;28;20064;-56
2023/11/21 01:23:05;;;;;;;89.65;30.60;;;7.90;99.90;;;;;;5069739;28;20094;-56
2023/11/21 01:25:31;;;;;;;98.35;30.50;;;7.90;99.90;;;;;;5069640;28;20035;-56
2023/11/21 01:27:57;;;;;;;71.13;25.88;;;7.90;99.90;;;;;;5068910;28;20029;-56
2023/11/21 01:30:22;;;;;;;93.30;27.13;;;8.00;99.90;;;;;;5069483;28;20078;-56
2023/11/21 01:32:48;;;;;;;89.00;26.83;;;7.90;99.90;;;;;;5069554;28;20032;-56
2023/11/21 01:35:13;;;;;;;80.45;25.75;;;7.90;99.90;;;;;;5069157;28;20039;-55
2023/11/21 01:37:39;;;;;;;61.83;24.85;;;7.90;99.90;;;;;;5069152;28;20528;-56
2023/11/21 01:40:09;;;;;;;63.17;25.63;;;7.90;99.90;;;;;;5069212;28;20044;-55
2023/11/21 01:42:35;;;;;;;87.40;28.77;;;7.90;99.90;;;;;;5069568;28;20017;-55
2023/11/21 01:45:04;;;;;;;71.05;27.17;;;7.90;99.90;;;;;;5069258;28;20130;-55
2023/11/21 01:47:33;;;;;;;88.65;27.40;;;7.90;99.90;;;;;;5068656;28;20027;-56
2023/11/21 01:49:59;;;;;;;76.78;26.98;;;7.90;99.90;;;;;;5068874;28;20134;-55
2023/11/21 01:52:25;;;;;;;77.03;26.15;;;7.90;99.90;;;;;;5069273;28;20020;-55
2023/11/21 01:54:52;;;;;;;82.60;27.35;;;7.90;99.90;;;;;;5068703;28;20024;-55
2023/11/21 01:57:20;;;;;;;64.03;25.20;;;8.00;99.90;;;;;;5068683;28;20058;-55
2023/11/21 01:59:48;;;;;;;81.10;26.85;;;7.90;99.90;;;;;;5068985;28;20025;-56
2023/11/21 02:02:15;;;;;;;69.03;24.90;;;8.00;99.90;;;;;;5069178;28;20024;-56
2023/11/21 02:04:41;;;;;;;58.28;25.00;;;7.90;99.90;;;;;;5068872;28;20029;-56
2023/11/21 02:07:06;;;;;;;78.57;26.55;;;7.90;99.90;;;;;;5067813;28;20054;-56
2023/11/21 02:09:38;;;;;;;54.60;23.23;;;7.90;99.90;;;;;;5068214;28;20028;-56
2023/11/21 02:12:04;;;;;;;76.82;25.48;;;7.90;99.90;;;;;;5068220;28;20043;-55
2023/11/21 02:14:30;;;;;;;53.45;22.30;;;8.00;99.90;;;;;;5068110;28;20036;-56
2023/11/21 02:17:00;;;;;;;53.08;22.23;;;7.90;99.90;;;;;;5065587;28;20024;-56
2023/11/21 02:19:26;;;;;;;50.15;21.73;;;7.90;99.90;;;;;;5068839;28;20104;-55
2023/11/21 02:21:53;;;;;;;52.25;22.90;;;7.90;99.90;;;;;;5066888;28;20364;-55
2023/11/21 02:24:21;;;;;;;58.20;21.90;;;8.00;99.90;;;;;;5068248;28;20525;-55
2023/11/21 02:26:47;;;;;;;51.80;20.30;;;8.00;99.90;;;;;;5068313;28;20020;-55
2023/11/21 02:29:13;;;;;;;51.60;21.02;;;8.00;99.90;;;;;;5068686;28;20547;-55
2023/11/21 02:31:47;;;;;;;51.15;20.60;;;8.00;99.90;;;;;;5068316;28;20106;-55
2023/11/21 02:34:17;;;;;;;53.00;21.35;;;8.00;99.90;;;;;;5068209;28;20458;-55
2023/11/21 02:36:43;;;;;;;43.88;22.50;;;8.00;99.90;;;;;;5067614;28;20028;-55
2023/11/21 02:39:10;;;;;;;45.15;19.67;;;8.10;99.90;;;;;;5068244;28;20025;-55
2023/11/21 02:41:36;;;;;;;45.28;20.35;;;8.10;99.90;;;;;;5068121;28;20020;-55
2023/11/21 02:44:01;;;;;;;51.85;20.77;;;8.10;99.90;;;;;;5067993;28;20032;-56
2023/11/21 02:46:27;;;;;;;42.78;18.95;;;8.10;99.90;;;;;;5067633;28;20037;-56
2023/11/21 02:48:56;;;;;;;49.95;21.45;;;8.10;99.90;;;;;;5068104;28;20063;-55
2023/11/21 02:51:21;;;;;;;47.45;20.70;;;8.10;99.90;;;;;;5068140;28;20533;-55
2023/11/21 02:53:47;;;;;;;49.05;21.27;;;8.10;99.90;;;;;;5067973;28;20103;-55
2023/11/21 02:56:13;;;;;;;53.45;21.13;;;8.10;99.90;;;;;;5068021;28;20029;-55
2023/11/21 02:58:43;;;;;;;49.92;22.02;;;8.10;99.90;;;;;;5067896;28;20096;-56
2023/11/21 03:01:09;;;;;;;;;;;8.10;99.90;;;;;;5068252;28;20108;-56
2023/11/21 03:03:37;;;;;;;58.80;21.42;;;8.20;99.90;;;;;;5067754;28;19961;-56
2023/11/21 03:06:02;;;;;;;46.25;19.30;;;8.20;99.90;;;;;;5067660;28;20058;-56
2023/11/21 03:08:28;;;;;;;41.85;20.55;;;8.20;99.90;;;;;;5066351;28;20021;-56
2023/11/21 03:10:53;;;;;;;50.40;20.92;;;8.10;99.90;;;;;;5066984;28;20093;-55
2023/11/21 03:13:19;;;;;;;48.20;22.85;;;8.20;99.90;;;;;;5067383;28;20032;-56
2023/11/21 03:15:44;;;;;;;41.78;18.83;;;8.20;99.90;;;;;;5067536;28;20111;-56
2023/11/21 03:18:10;;;;;;;44.35;19.65;;;8.20;99.90;;;;;;5064479;28;20028;-55
2023/11/21 03:20:36;;;;;;;53.00;22.10;;;8.20;99.90;;;;;;5067319;28;20024;-55
2023/11/21 03:23:01;;;;;;;48.40;22.20;;;8.10;99.90;;;;;;5065938;28;20021;-56
2023/11/21 03:25:27;;;;;;;47.72;21.52;;;8.20;99.90;;;;;;5067451;28;20033;-56
2023/11/21 03:27:53;;;;;;;56.03;22.27;;;8.20;99.90;;;;;;5065628;28;20059;-56
2023/11/21 03:30:19;;;;;;;47.55;22.50;;;8.20;99.90;;;;;;5067960;28;20373;-56
2023/11/21 03:32:45;;;;;;;42.92;19.38;;;8.10;99.90;;;;;;5065961;28;20021;-56
2023/11/21 03:35:10;;;;;;;45.72;22.77;;;8.20;99.90;;;;;;5067622;28;20502;-56
2023/11/21 03:37:38;;;;;;;60.83;22.25;;;8.20;99.90;;;;;;5065259;28;20075;-55
2023/11/21 03:40:04;;;;;;;50.60;21.25;;;8.20;99.90;;;;;;5066431;28;20024;-55
2023/11/21 03:42:30;;;;;;;54.42;23.60;;;8.20;99.90;;;;;;5067467;28;20031;-55
2023/11/21 03:44:55;;;;;;;42.38;20.48;;;8.20;99.90;;;;;;5067622;28;20476;-56
2023/11/21 03:47:21;;;;;;;55.50;22.73;;;8.20;99.90;;;;;;5061540;28;20162;-55
2023/11/21 03:49:47;;;;;;;49.15;22.15;;;8.20;99.90;;;;;;5067362;28;20470;-55
2023/11/21 03:52:12;;;;;;;53.53;23.33;;;8.20;99.90;;;;;;5067825;28;20618;-55
2023/11/21 03:54:38;;;;;;;51.80;24.08;;;8.20;99.90;;;;;;5066292;28;20118;-55
2023/11/21 03:57:04;;;;;;;46.55;22.48;;;8.20;99.90;;;;;;5066923;28;20101;-55
2023/11/21 03:59:29;;;;;;;53.47;24.45;;;8.20;99.90;;;;;;5067720;28;20032;-55
2023/11/21 04:01:56;;;;;;;52.25;23.70;;;8.20;99.90;;;;;;5067634;28;20052;-55
2023/11/21 04:04:22;;;;;;;50.72;22.05;;;8.20;99.90;;;;;;5067623;28;20048;-55
2023/11/21 04:06:48;;;;;;;52.42;21.65;;;8.20;99.90;;;;;;5067338;28;20053;-55
2023/11/21 04:09:13;;;;;;;61.97;25.35;;;8.20;99.90;;;;;;5068015;28;20367;-55
2023/11/21 04:11:39;;;;;;;62.42;25.52;;;8.20;99.90;;;;;;5067716;28;20032;-55
2023/11/21 04:14:05;;;;;;;59.22;25.33;;;8.20;99.90;;;;;;5067433;28;20100;-55
2023/11/21 04:16:30;;;;;;;54.58;23.23;;;8.20;99.90;;;;;;5067133;28;20027;-55
2023/11/21 04:18:57;;;;;;;58.55;25.23;;;8.20;99.90;;;;;;5067441;28;20032;-56
2023/11/21 04:21:24;;;;;;;50.78;23.40;;;8.20;99.90;;;;;;5067383;28;20021;-56
2023/11/21 04:23:50;;;;;;;57.63;24.33;;;8.20;99.90;;;;;;5070008;28;20127;-55
2023/11/21 04:26:15;;;;;;;47.67;22.50;;;8.20;99.90;;;;;;5062980;28;20389;-56
2023/11/21 04:28:41;;;;;;;58.35;25.52;;;8.20;99.90;;;;;;5070562;28;20103;-56
2023/11/21 04:31:07;;;;;;;60.85;24.50;;;8.20;99.90;;;;;;5070755;28;20494;-56
2023/11/21 04:33:32;;;;;;;56.92;24.35;;;8.20;99.90;;;;;;5070896;28;20389;-56
2023/11/21 04:35:58;;;;;;;49.20;22.10;;;8.20;99.90;;;;;;5070750;28;20099;-58
2023/11/21 04:38:24;;;;;;;53.08;22.45;;;8.20;99.90;;;;;;5070496;28;20050;-57
2023/11/21 04:40:49;;;;;;;41.63;18.08;;;8.20;99.90;;;;;;5069286;28;20024;-56
2023/11/21 04:43:15;;;;;;;23.50;11.48;;;8.20;99.90;;;;;;5070714;28;20021;-56
2023/11/21 04:45:41;;;;;;;18.67;9.40;;;8.10;99.90;;;;;;5069275;28;20025;-56
2023/11/21 04:48:08;;;;;;;13.48;7.50;;;8.10;99.90;;;;;;5070512;28;20189;-56
2023/11/21 04:50:34;;;;;;;11.63;6.57;;;8.10;99.90;;;;;;5070640;28;20028;-56
2023/11/21 04:52:59;;;;;;;9.75;5.78;;;8.10;99.90;;;;;;5070496;28;20554;-56
2023/11/21 04:55:27;;;;;;;10.23;5.97;;;8.10;99.90;;;;;;5070967;28;20123;-56
2023/11/21 04:57:53;;;;;;;9.82;5.82;;;8.00;99.90;;;;;;5069759;28;20058;-56
2023/11/21 05:00:21;;;;;;;9.13;5.00;;;7.90;99.90;;;;;;5070236;28;20105;-56
2023/11/21 05:02:46;;;;;;;9.82;4.88;;;7.90;99.90;;;;;;5068320;28;20040;-56
2023/11/21 05:05:12;;;;;;;10.30;6.00;;;7.80;99.90;;;;;;5069960;28;20025;-56
2023/11/21 05:07:39;;;;;;;11.00;5.70;;;7.90;99.90;;;;;;5068199;28;20454;-56
2023/11/21 05:10:10;;;;;;;9.02;5.28;;;7.80;99.90;;;;;;5069744;28;20036;-56
2023/11/21 05:12:37;;;;;;;8.75;6.07;;;7.80;99.90;;;;;;5070046;28;20029;-56
2023/11/21 05:15:07;;;;;;;9.05;5.68;;;7.80;99.90;;;;;;5069899;28;20099;-56
2023/11/21 05:17:34;;;;;;;9.00;5.47;;;7.70;99.90;;;;;;5069659;28;20319;-56
2023/11/21 05:20:03;;;;;;;11.80;6.57;;;7.70;99.90;;;;;;5070046;28;20224;-57
2023/11/21 05:22:29;;;;;;;9.73;5.82;;;7.70;99.90;;;;;;5069699;28;20180;-56
2023/11/21 05:24:55;;;;;;;13.27;6.40;;;7.70;99.90;;;;;;5069554;28;20021;-56
2023/11/21 05:27:21;;;;;;;11.65;6.35;;;7.70;99.90;;;;;;5069638;28;20035;-56
2023/11/21 05:29:46;;;;;;;11.05;6.90;;;7.70;99.90;;;;;;5070097;28;20024;-57
2023/11/21 05:32:12;;;;;;;21.58;10.73;;;7.70;99.90;;;;;;5069885;28;20111;-56
2023/11/21 05:34:37;;;;;;;20.65;10.77;;;7.70;99.90;;;;;;5069290;28;20458;-56
2023/11/21 05:37:05;;;;;;;20.75;11.63;;;7.60;99.90;;;;;;5069590;28;20100;-56
2023/11/21 05:39:30;;;;;;;28.58;15.25;;;7.60;99.90;;;;;;5069306;28;20051;-55
2023/11/21 05:41:57;;;;;;;25.17;14.50;;;7.50;99.90;;;;;;5069193;28;20105;-55
2023/11/21 05:44:23;;;;;;;25.38;15.10;;;7.50;99.90;;;;;;5069712;28;20021;-55
2023/11/21 05:46:50;;;;;;;26.15;15.70;;;7.50;99.90;;;;;;5068748;28;20335;-55
2023/11/21 05:49:16;;;;;;;31.65;16.42;;;7.50;99.90;;;;;;5068916;28;20126;-55
2023/11/21 05:51:41;;;;;;;31.30;16.13;;;7.50;99.90;;;;;;5069469;28;20036;-55
2023/11/21 05:54:07;;;;;;;29.80;17.08;;;7.40;99.90;;;;;;5068959;28;20036;-55
2023/11/21 05:56:33;;;;;;;33.70;17.00;;;7.40;99.90;;;;;;5067100;28;20078;-55
2023/11/21 05:58:59;;;;;;;33.58;18.15;;;7.40;99.90;;;;;;5069227;28;20078;-55
2023/11/21 06:01:28;;;;;;;34.55;17.48;;;7.30;99.90;;;;;;5069432;28;20115;-56
2023/11/21 06:03:54;;;;;;;32.30;17.52;;;7.20;99.90;;;;;;5068954;28;20013;-56
2023/11/21 06:06:22;;;;;;;34.17;19.00;;;7.20;99.90;;;;;;5069204;28;20021;-56
2023/11/21 06:08:48;;;;;;;36.70;18.92;;;7.20;99.90;;;;;;5068449;28;20103;-56
2023/11/21 06:11:14;;;;;;;35.53;17.95;;;7.20;99.90;;;;;;5068865;28;20093;-56
2023/11/21 06:13:39;;;;;;;36.92;18.45;;;7.10;99.90;;;;;;5068738;28;20036;-56
2023/11/21 06:16:05;;;;;;;31.40;17.50;;;7.10;99.90;;;;;;5073575;28;20087;-56
2023/11/21 06:18:31;;;;;;;34.65;18.90;;;7.20;99.90;;;;;;5071622;28;20060;-56
2023/11/21 06:20:57;;;;;;;35.90;19.13;;;7.10;99.90;;;;;;5068948;28;20075;-56
2023/11/21 06:23:23;;;;;;;35.78;19.25;;;7.20;99.90;;;;;;5068970;28;20024;-56
2023/11/21 06:25:48;;;;;;;34.47;18.65;;;7.20;99.90;;;;;;5068771;28;20386;-56
2023/11/21 06:28:17;;;;;;;44.60;19.75;;;7.20;99.90;;;;;;5068720;28;20036;-55
2023/11/21 06:30:44;;;;;;;42.75;20.25;;;7.10;99.90;;;;;;5068942;28;20433;-56
2023/11/21 06:33:10;;;;;;;44.35;22.02;;;7.10;99.90;;;;;;5067554;28;20020;-56
2023/11/21 06:35:35;;;;;;;42.55;20.73;;;7.10;99.90;;;;;;5066833;28;20366;-54
2023/11/21 06:38:01;;;;;;;36.50;19.33;;;7.10;99.90;;;;;;5068108;28;20037;-55
2023/11/21 06:40:27;;;;;;;42.03;22.35;;;7.10;99.90;;;;;;5068405;28;20124;-50
2023/11/21 06:42:53;;;;;;;44.65;20.65;;;7.10;99.90;;;;;;5068547;28;20025;-54
2023/11/21 06:45:19;;;;;;;34.53;19.50;;;7.00;99.90;;;;;;5067324;28;20024;-55
2023/11/21 06:47:45;;;;;;;43.00;20.27;;;7.10;99.90;;;;;;5067667;28;20111;-55
2023/11/21 06:50:11;;;;;;;37.72;19.65;;;7.10;99.90;;;;;;5066648;28;20174;-55
2023/11/21 06:52:37;;;;;;;41.67;20.65;;;7.00;99.90;;;;;;5068361;28;20044;-53
2023/11/21 06:55:03;;;;;;;38.55;20.42;;;7.00;99.90;;;;;;5068136;28;20028;-55
2023/11/21 06:57:29;;;;;;;36.53;20.30;;;7.10;99.90;;;;;;5067897;28;20016;-55
2023/11/21 06:59:54;;;;;;;32.60;18.38;;;7.10;99.90;;;;;;5068176;28;20120;-55
2023/11/21 07:02:20;;;;;;;37.40;20.17;;;7.10;99.90;;;;;;5068522;28;20025;-56
2023/11/21 07:04:46;;;;;;;31.35;17.63;;;7.10;99.90;;;;;;5069835;28;20104;-55
2023/11/21 07:07:12;;;;;;;33.00;17.88;;;7.10;99.90;;;;;;5073912;28;20020;-56
2023/11/21 07:09:38;;;;;;;36.17;19.23;;;7.10;99.90;;;;;;5073526;28;20127;-55
2023/11/21 07:12:06;;;;;;;37.58;19.10;;;7.00;99.90;;;;;;5072110;28;20583;-56
2023/11/21 07:14:32;;;;;;;34.28;19.52;;;7.00;99.90;;;;;;5069935;28;20119;-56
2023/11/21 07:16:57;;;;;;;36.55;19.33;;;7.10;99.90;;;;;;5073731;28;20136;-56
2023/11/21 07:19:23;;;;;;;35.92;19.35;;;7.00;99.90;;;;;;5072033;28;20104;-56
2023/11/21 07:21:51;;;;;;;39.17;20.58;;;7.00;99.90;;;;;;5073047;28;20378;-55
2023/11/21 07:24:17;;;;;;;39.25;18.80;;;7.10;99.90;;;;;;5071177;28;20020;-56
2023/11/21 07:26:43;;;;;;;31.17;17.15;;;7.00;99.90;;;;;;5070434;28;20444;-56
2023/11/21 07:29:08;;;;;;;29.65;16.27;;;7.10;99.90;;;;;;5073104;28;20062;-56
2023/11/21 07:31:34;;;;;;;27.98;15.50;;;7.00;99.90;;;;;;5073605;28;20153;-56
2023/11/21 07:34:00;;;;;;;25.75;15.35;;;7.10;99.90;;;;;;5074398;28;20028;-56
2023/11/21 07:36:26;;;;;;;27.48;16.15;;;7.10;99.90;;;;;;5071747;28;20020;-56
2023/11/21 07:38:52;;;;;;;25.13;15.82;;;7.10;99.90;;;;;;5073077;28;20548;-55
2023/11/21 07:41:18;;;;;;;20.80;12.13;;;7.10;99.90;;;;;;5071397;28;20542;-55
2023/11/21 07:43:45;;;;;;;23.38;13.27;;;7.00;99.90;;;;;;5071040;28;20025;-56
2023/11/21 07:46:14;;;;;;;20.98;12.82;;;7.10;99.90;;;;;;5071024;28;20089;-56
2023/11/21 07:48:42;;;;;;;20.98;12.77;;;7.10;99.90;;;;;;5070123;28;20450;-56
2023/11/21 07:51:08;;;;;;;25.05;13.77;;;7.10;99.90;;;;;;5072851;28;20063;-56
2023/11/21 07:53:34;;;;;;;19.10;11.32;;;7.10;99.90;;;;;;5071220;28;20082;-55
2023/11/21 07:56:05;;;;;;;18.27;10.75;;;7.10;99.90;;;;;;5073508;28;20099;-56
2023/11/21 07:58:33;;;;;;;15.43;11.05;;;7.10;99.90;;;;;;5073376;28;20387;-56
2023/11/21 08:00:59;;;;;;;19.67;11.43;;;7.10;99.90;;;;;;5077095;28;20535;-56
2023/11/21 08:03:26;;;;;;;22.35;11.73;;;7.20;99.90;;;;;;5075337;28;20021;-55
2023/11/21 08:05:52;;;;;;;20.42;12.63;;;7.20;99.90;;;;;;5076879;28;20008;-56
2023/11/21 08:08:18;;;;;;;16.73;10.38;;;7.20;99.90;;;;;;5073482;28;20522;-55
2023/11/21 08:10:47;;;;;;;18.23;12.43;;;7.20;99.90;;;;;;5071250;28;20029;-55
2023/11/21 08:13:16;;;;;;;21.05;11.35;;;7.30;99.90;;;;;;5070562;28;20114;-55
2023/11/21 08:15:45;;;;;;;17.02;11.45;;;7.30;99.90;;;;;;5066432;28;20028;-54
2023/11/21 08:18:12;;;;;;;18.83;11.48;;;7.30;99.90;;;;;;5068783;28;20040;-55
2023/11/21 08:20:39;;;;;;;15.77;10.07;;;7.30;99.90;;;;;;5069624;28;20362;-55
2023/11/21 08:23:05;;;;;;;15.75;9.55;;;7.30;99.90;;;;;;5069594;28;20034;-55
2023/11/21 08:25:32;;;;;;;15.90;9.95;;;7.30;99.90;;;;;;5071544;28;20106;-55
2023/11/21 08:27:57;;;;;;;17.40;10.23;;;7.30;99.90;;;;;;5070773;28;20024;-55
2023/11/21 08:30:24;;;;;;;14.73;9.88;;;7.30;99.90;;;;;;5071333;28;20054;-55
2023/11/21 08:32:53;;;;;;;14.80;10.05;;;7.40;99.90;;;;;;5070751;28;20024;-55
2023/11/21 08:35:19;;;;;;;17.52;11.45;;;7.50;99.90;;;;;;5071142;28;20573;-54
2023/11/21 08:37:45;;;;;;;18.88;10.70;;;7.50;99.90;;;;;;5070656;28;20016;-54
2023/11/21 08:40:12;;;;;;;15.70;10.15;;;7.60;99.90;;;;;;5071376;28;20082;-56
2023/11/21 08:42:37;;;;;;;17.27;11.05;;;7.60;99.90;;;;;;5070991;28;20066;-55
2023/11/21 08:45:04;;;;;;;14.48;9.80;;;7.60;99.90;;;;;;5070796;28;20033;-55
2023/11/21 08:47:30;;;;;;;18.52;11.00;;;7.60;99.90;;;;;;5070068;28;20107;-56
2023/11/21 08:49:55;;;;;;;16.45;10.00;;;7.70;99.90;;;;;;5070333;28;20103;-55
2023/11/21 08:52:24;;;;;;;15.85;11.30;;;7.60;99.90;;;;;;5070472;28;20036;-55
2023/11/21 08:54:55;;;;;;;15.73;10.48;;;7.60;99.90;;;;;;5070635;28;20025;-55
2023/11/21 08:57:22;;;;;;;17.05;10.65;;;7.60;99.90;;;;;;5070113;28;20083;-55
2023/11/21 08:59:47;;;;;;;16.17;9.98;;;7.60;99.90;;;;;;5070459;28;20350;-55
2023/11/21 09:02:13;;;;;;;15.43;10.35;;;7.60;99.90;;;;;;5070478;28;20035;-55
2023/11/21 09:04:38;;;;;;;17.02;10.73;;;7.60;99.90;;;;;;5069838;28;20063;-53
2023/11/21 09:07:04;;;;;;;15.70;10.00;;;7.60;99.90;;;;;;5069448;28;20023;-55
2023/11/21 09:09:30;;;;;;;15.98;9.80;;;7.60;99.90;;;;;;5069343;28;20445;-55
2023/11/21 09:11:55;;;;;;;15.40;10.48;;;7.60;99.90;;;;;;5069842;28;20374;-56
2023/11/21 09:14:22;;;;;;;14.95;9.90;;;7.70;99.90;;;;;;5069913;28;20028;-55
2023/11/21 09:16:47;;;;;;;15.90;9.98;;;7.70;99.90;;;;;;5069505;28;20215;-54
2023/11/21 09:19:14;;;;;;;15.52;9.32;;;7.80;99.90;;;;;;5069917;28;20632;-55
2023/11/21 09:21:39;;;;;;;15.68;10.57;;;7.90;99.90;;;;;;5069675;28;20073;-55
2023/11/21 09:24:05;;;;;;;14.98;10.35;;;7.90;99.90;;;;;;5067841;28;20207;-55
2023/11/21 09:26:31;;;;;;;14.30;9.73;;;8.10;99.90;;;;;;5067528;28;20028;-55
2023/11/21 09:28:56;;;;;;;11.23;8.38;;;8.20;99.90;;;;;;5067957;28;20647;-55
2023/11/21 09:31:23;;;;;;;14.68;9.95;;;8.20;99.90;;;;;;5068300;28;20043;-55
2023/11/21 09:33:49;;;;;;;13.60;8.60;;;8.40;99.90;;;;;;5068412;28;20016;-55
2023/11/21 09:36:15;;;;;;;12.48;9.05;;;8.50;99.90;;;;;;5067567;28;20036;-55
2023/11/21 09:38:41;;;;;;;13.50;9.07;;;8.30;99.90;;;;;;5067329;28;20133;-55
2023/11/21 09:41:17;;;;;;;12.85;8.60;;;8.30;99.90;;;;;;5069449;28;20374;-55
2023/11/21 09:43:45;;;;;;;14.98;8.65;;;8.40;99.90;;;;;;5069646;28;20100;-55
2023/11/21 09:46:16;;;;;;;14.13;9.25;;;8.50;99.90;;;;;;5069238;28;20020;-55
2023/11/21 09:48:43;;;;;;;10.52;7.80;;;8.60;99.90;;;;;;5069254;28;20696;-54
2023/11/21 09:51:10;;;;;;;12.82;8.98;;;8.80;99.90;;;;;;5069348;28;20029;-55
2023/11/21 09:53:37;;;;;;;13.88;8.70;;;8.90;99.90;;;;;;5069236;28;20111;-55
2023/11/21 09:56:04;;;;;;;13.73;9.50;;;9.00;99.90;;;;;;5069050;28;20480;-55
2023/11/21 09:58:31;;;;;;;14.60;10.02;;;9.10;99.90;;;;;;5068923;28;20094;-55
2023/11/21 10:00:59;;;;;;;15.27;9.20;;;8.90;99.90;;;;;;5068962;28;20016;-55
2023/11/21 10:03:25;;;;;;;11.45;8.43;;;8.70;99.90;;;;;;5069084;28;20013;-55
2023/11/21 10:05:52;;;;;;;13.95;8.20;;;8.60;99.90;;;;;;5068823;28;20047;-55
2023/11/21 10:08:22;;;;;;;13.00;9.27;;;8.60;99.90;;;;;;5068318;28;20544;-55
2023/11/21 10:10:52;;;;;;;16.63;9.27;;;8.60;99.90;;;;;;5067051;28;20029;-54
2023/11/21 10:13:19;;;;;;;11.70;8.18;;;8.50;99.90;;;;;;5068793;28;20016;-55
2023/11/21 10:15:50;;;;;;;14.85;8.40;;;8.30;99.90;;;;;;5068216;28;20224;-54
2023/11/21 10:18:17;;;;;;;11.68;8.23;;;8.40;99.90;;;;;;5060848;28;20060;-55
2023/11/21 10:20:43;;;;;;;16.52;10.18;;;8.40;99.90;;;;;;5068559;28;20073;-55
2023/11/21 10:23:11;;;;;;;15.88;9.05;;;8.40;99.90;;;;;;5068364;28;20185;-54
2023/11/21 10:25:37;;;;;;;16.52;9.32;;;8.40;99.90;;;;;;5066718;28;20025;-54
2023/11/21 10:28:07;;;;;;;14.32;8.80;;;8.30;99.90;;;;;;5067924;28;20096;-54
2023/11/21 10:30:37;;;;;;;14.13;9.48;;;8.20;99.90;;;;;;5068355;28;20462;-54
2023/11/21 10:33:04;;;;;;;14.07;8.73;;;8.20;99.90;;;;;;5068249;28;20039;-55
2023/11/21 10:35:54;;;;;;;14.60;8.98;;;8.20;99.90;;;;;;5068530;28;20158;-55
2023/11/21 10:38:23;;;;;;;11.38;8.05;;;8.30;99.90;;;;;;5068258;28;20035;-54
2023/11/21 10:40:49;;;;;;;12.65;8.30;;;8.50;99.90;;;;;;5068299;28;20028;-54
2023/11/21 10:43:15;;;;;;;10.75;7.75;;;8.50;99.90;;;;;;5068382;28;20401;-54
2023/11/21 10:45:42;;;;;;;9.65;7.28;;;8.60;99.90;;;;;;5066729;28;20024;-54
2023/11/21 10:48:17;;;;;;;11.25;7.72;;;8.60;99.90;;;;;;5068083;28;20501;-55
2023/11/21 10:50:47;;;;;;;10.07;7.55;;;8.70;99.90;;;;;;5068859;28;20135;-54
2023/11/21 10:53:13;;;;;;;12.48;8.32;;;8.80;99.90;;;;;;5067085;28;20047;-54
2023/11/21 10:55:39;;;;;;;11.40;8.60;;;8.80;99.90;;;;;;5068370;28;20366;-55
2023/11/21 10:58:06;;;;;;;14.38;8.13;;;8.90;99.90;;;;;;5066251;28;20029;-55
2023/11/21 11:00:34;;;;;;;12.40;7.90;;;9.00;99.90;;;;;;5068436;28;20024;-54
2023/11/21 11:03:00;;;;;;;12.23;7.55;;;9.00;99.90;;;;;;5068348;28;20092;-55
2023/11/21 11:05:32;;;;;;;10.95;7.55;;;9.00;99.90;;;;;;5068291;28;20031;-54
2023/11/21 11:08:10;;;;;;;12.15;6.55;;;9.00;99.90;;;;;;5068225;28;20155;-54
2023/11/21 11:10:36;;;;;;;10.75;7.18;;;8.90;99.90;;;;;;5066845;28;20108;-55
2023/11/21 11:13:02;;;;;;;9.90;6.60;;;8.80;99.90;;;;;;5068907;28;20097;-55
2023/11/21 11:15:28;;;;;;;9.57;6.72;;;8.90;99.90;;;;;;5068396;28;20673;-55
2023/11/21 11:17:58;;;;;;;9.10;6.80;;;9.00;99.90;;;;;;5067995;28;20109;-55
2023/11/21 11:20:30;;;;;;;9.52;6.90;;;9.10;99.90;;;;;;5067987;28;20016;-55
2023/11/21 11:23:01;;;;;;;10.07;6.63;;;9.10;99.90;;;;;;5068522;28;20053;-55
2023/11/21 11:25:34;;;;;;;10.57;7.63;;;9.20;99.90;;;;;;5067716;28;20099;-55
2023/11/21 11:28:20;;;;;;;10.80;6.25;;;9.20;99.90;;;;;;5067505;28;20104;-55
2023/11/21 11:31:18;;;;;;;9.40;6.10;;;9.30;99.90;;;;;;5067872;28;20051;-55
2023/11/21 11:33:50;;;;;;;8.60;6.65;;;9.50;99.90;;;;;;5067598;28;20107;-55
2023/11/21 11:36:21;;;;;;;7.78;5.50;;;9.50;99.90;;;;;;5067553;28;20028;-55
2023/11/21 11:38:50;;;;;;;8.25;5.80;;;9.50;99.90;;;;;;5067501;28;20016;-55
2023/11/21 11:41:25;;;;;;;9.38;6.15;;;9.50;99.90;;;;;;5066166;28;20099;-55
2023/11/21 11:43:51;;;;;;;9.73;6.20;;;9.20;99.90;;;;;;5067870;28;20040;-55
2023/11/21 11:46:21;;;;;;;9.68;6.32;;;9.10;99.90;;;;;;5065908;28;20437;-55
2023/11/21 11:48:48;;;;;;;8.00;5.63;;;8.90;99.90;;;;;;5067659;28;20161;-55
2023/11/21 11:51:16;;;;;;;8.18;5.43;;;8.80;99.90;;;;;;5059660;28;20041;-55
2023/11/21 11:53:45;;;;;;;7.35;5.30;;;8.80;99.90;;;;;;5066094;28;20118;-55
2023/11/21 11:56:22;;;;;;;6.10;4.93;;;8.80;99.90;;;;;;5065616;28;20037;-55
2023/11/21 11:58:49;;;;;;;7.97;4.88;;;8.70;99.90;;;;;;5067243;28;20033;-55
2023/11/21 12:01:18;;;;;;;10.20;4.93;;;8.80;99.90;;;;;;5067441;28;20055;-55
2023/11/21 12:03:44;;;;;;;6.45;4.72;;;8.90;99.90;;;;;;5067478;28;20100;-55
2023/11/21 12:06:11;;;;;;;8.60;5.47;;;9.20;99.90;;;;;;5066992;28;20125;-55
2023/11/21 12:08:37;;;;;;;10.23;6.18;;;9.60;99.90;;;;;;5067145;28;20025;-57
2023/11/21 12:11:04;;;;;;;7.18;5.30;;;9.70;99.90;;;;;;5067055;28;20039;-55
2023/11/21 12:13:30;;;;;;;7.93;5.28;;;9.80;99.90;;;;;;5067283;28;20020;-55
2023/11/21 12:15:55;;;;;;;7.35;5.30;;;9.90;99.90;;;;;;5067126;28;20029;-55
2023/11/21 12:18:21;;;;;;;7.32;4.20;;;9.90;99.90;;;;;;5066851;28;20324;-55
2023/11/21 12:20:50;;;;;;;5.95;4.68;;;9.80;99.90;;;;;;5067244;28;20032;-55
2023/11/21 12:23:16;;;;;;;6.93;4.80;;;9.50;99.90;;;;;;5067302;28;20013;-55
2023/11/21 12:25:43;;;;;;;6.60;4.00;;;9.40;99.90;;;;;;5065701;28;20025;-55
2023/11/21 12:28:08;;;;;;;6.97;5.07;;;9.20;99.90;;;;;;5067414;28;20454;-55
2023/11/21 12:30:35;;;;;;;7.82;4.55;;;9.10;99.90;;;;;;5067367;28;20044;-55
2023/11/21 12:33:02;;;;;;;5.68;4.65;;;8.90;99.90;;;;;;5067113;28;20036;-55
2023/11/21 12:35:35;;;;;;;6.85;4.57;;;8.80;99.90;;;;;;5067240;28;20024;-55
2023/11/21 12:38:04;;;;;;;7.43;4.82;;;8.50;99.90;;;;;;5066876;28;20029;-55